Terminal Aerodrome Forecast
Issued by NWS Shreveport, LA

Home | Current Version | Previous Version | Text Only | Print | Product List | Glossary On
Versions: 1 2 3 4 5 6 7 8 9 10 11 12 13
793
FTUS44 KSHV 281120
TAFSHV
TAF
KSHV 281120Z 2812/2912 33003KT P6SM SKC
     FM281500 27007KT P6SM FEW250
     FM290800 29004KT P6SM SCT250=

USA.gov is the U.S. government's official web portal to all federal, state and local government web resources and services.